Terminal Aerodrome Forecast
Issued by NWS

Home | Current Version | Previous Version | Text Only | Print | Product List | Glossary On
Versions: 1 2 3 4 5 6 7 8 9 10 11 12 13
000
FTUS44 KEPZ 191721
TAFTCS
TAF
KTCS 191721Z 1918/2018 17008KT P6SM FEW080 SCT120 BKN200
     FM200000 15010KT P6SM VCTS SCT060CB BKN100 BKN200
      TEMPO 2002/2006 VRB25G35KT 3SM TSRA BKN040CB BKN100
     FM200600 26010KT P6SM SHRA SCT020 BKN040 OVC100
      TEMPO 2006/2010 1SM +TSRA BKN015CB=

USA.gov is the U.S. government's official web portal to all federal, state and local government web resources and services.